createdAt,value
2023-04-03T00:00:47.920Z,2.41
2023-04-03T00:03:16.630Z,2.45
2023-04-03T00:05:45.163Z,2.43
2023-04-03T00:08:13.545Z,2.44
2023-04-03T00:10:41.562Z,2.38
2023-04-03T00:13:10.233Z,2.31
2023-04-03T00:15:39.692Z,2.35
2023-04-03T00:18:08.080Z,2.40
2023-04-03T00:20:36.670Z,2.39
2023-04-03T00:23:05.024Z,2.36
2023-04-03T00:25:33.085Z,2.33
2023-04-03T00:28:01.745Z,2.34
2023-04-03T00:30:31.799Z,2.40
2023-04-03T00:33:01.870Z,2.42
2023-04-03T00:35:31.074Z,2.37
2023-04-03T00:37:59.214Z,2.34
2023-04-03T00:40:28.574Z,2.35
2023-04-03T00:42:59.245Z,2.32
2023-04-03T00:45:30.280Z,2.38
2023-04-03T00:48:00.836Z,2.34
2023-04-03T00:50:31.416Z,2.34
2023-04-03T00:53:00.259Z,2.28
2023-04-03T00:55:30.877Z,2.27
2023-04-03T00:57:59.217Z,2.32
2023-04-03T01:00:28.858Z,2.29
2023-04-03T01:02:57.154Z,2.24
2023-04-03T01:05:25.029Z,2.25
2023-04-03T01:07:54.769Z,2.22
2023-04-03T01:10:23.457Z,2.24
2023-04-03T01:12:52.579Z,2.23
2023-04-03T01:15:21.943Z,2.27
2023-04-03T01:17:51.059Z,2.23
2023-04-03T01:20:40.929Z,2.24
2023-04-03T01:23:15.126Z,2.17
2023-04-03T01:25:44.642Z,2.14
2023-04-03T01:28:13.936Z,2.15
2023-04-03T01:30:45.405Z,2.12
2023-04-03T01:33:16.139Z,2.10
2023-04-03T01:35:44.640Z,2.10
2023-04-03T01:38:12.892Z,2.03
2023-04-03T01:40:40.766Z,2.01
2023-04-03T01:43:08.628Z,2.01
2023-04-03T01:45:36.683Z,2.01
2023-04-03T01:48:04.890Z,1.95
2023-04-03T01:50:34.814Z,1.97
2023-04-03T01:53:02.870Z,1.96
2023-04-03T01:55:31.159Z,1.89
2023-04-03T01:57:59.335Z,1.84
2023-04-03T02:00:28.265Z,1.84
2023-04-03T02:02:56.691Z,1.72
2023-04-03T02:05:24.866Z,1.73
2023-04-03T02:07:54.242Z,1.69
2023-04-03T02:10:22.070Z,1.60
2023-04-03T02:12:50.600Z,1.58
2023-04-03T02:15:18.561Z,1.57
2023-04-03T02:17:46.679Z,1.58
2023-04-03T02:20:15.339Z,1.60
2023-04-03T02:22:43.477Z,1.59
2023-04-03T02:25:14.216Z,1.52
2023-04-03T02:27:42.081Z,1.52
2023-04-03T02:30:11.807Z,1.50
2023-04-03T02:32:39.687Z,1.49
2023-04-03T02:35:08.028Z,1.39
2023-04-03T02:37:36.718Z,1.39
2023-04-03T02:40:05.321Z,1.33
2023-04-03T02:42:35.082Z,1.27
2023-04-03T02:45:03.182Z,1.28
2023-04-03T02:47:31.815Z,1.23
2023-04-03T02:50:00.113Z,1.16
2023-04-03T02:52:28.374Z,1.12
2023-04-03T02:54:56.202Z,1.10
2023-04-03T02:57:25.199Z,1.06
2023-04-03T02:59:54.938Z,1.06
2023-04-03T03:02:23.204Z,1.13
2023-04-03T03:04:51.240Z,1.05
2023-04-03T03:07:19.950Z,1.11
2023-04-03T03:09:47.933Z,1.14
2023-04-03T03:12:15.869Z,1.11
2023-04-03T03:14:44.404Z,1.12
2023-04-03T03:17:14.685Z,1.07
2023-04-03T03:19:42.535Z,1.05
2023-04-03T03:22:10.532Z,1.03
2023-04-03T03:24:38.594Z,1.02
2023-04-03T03:27:06.900Z,1.03
2023-04-03T03:29:35.031Z,1.01
2023-04-03T03:32:03.690Z,1.01
2023-04-03T03:34:33.187Z,1.00
2023-04-03T03:37:01.546Z,0.97
2023-04-03T03:39:29.585Z,0.95
2023-04-03T03:41:57.374Z,0.94
2023-04-03T03:44:25.996Z,0.89
2023-04-03T03:46:54.211Z,0.97
2023-04-03T03:49:22.236Z,0.89
2023-04-03T03:51:52.972Z,0.97
2023-04-03T03:54:20.990Z,0.89
2023-04-03T03:56:50.210Z,0.91
2023-04-03T03:59:18.318Z,0.92
2023-04-03T04:01:46.523Z,0.94
2023-04-03T04:04:14.738Z,0.90
2023-04-03T04:06:43.184Z,0.90
2023-04-03T04:09:17.171Z,0.90
2023-04-03T04:11:45.251Z,0.93
2023-04-03T04:14:14.747Z,0.93
2023-04-03T04:16:43.132Z,0.89
2023-04-03T04:19:11.241Z,0.93
2023-04-03T04:21:39.296Z,0.96
2023-04-03T04:24:07.527Z,0.94
2023-04-03T04:26:37.949Z,1.05
2023-04-03T04:29:06.294Z,0.98
2023-04-03T04:31:34.935Z,0.97
2023-04-03T04:34:03.402Z,0.94
2023-04-03T04:36:31.587Z,0.95
2023-04-03T04:39:00.030Z,0.93
2023-04-03T04:41:29.149Z,0.91
2023-04-03T04:43:59.076Z,0.88
2023-04-03T04:46:27.378Z,0.74
2023-04-03T04:48:55.329Z,0.66
2023-04-03T04:51:23.692Z,0.60
2023-04-03T04:53:53.514Z,0.55
2023-04-03T04:56:23.335Z,0.53
2023-04-03T04:58:51.806Z,0.55
2023-04-03T05:01:21.271Z,0.57
2023-04-03T05:03:49.967Z,0.60
2023-04-03T05:06:18.162Z,0.56
2023-04-03T05:08:46.281Z,0.59
2023-04-03T05:11:14.682Z,0.62
2023-04-03T05:13:43.137Z,0.63
2023-04-03T05:16:12.464Z,0.73
2023-04-03T05:18:42.063Z,0.62
2023-04-03T05:21:10.649Z,0.70
2023-04-03T05:23:39.239Z,0.77
2023-04-03T05:26:07.718Z,0.69
2023-04-03T05:28:36.290Z,0.77
2023-04-03T05:31:04.369Z,0.72
2023-04-03T05:33:32.673Z,0.70
2023-04-03T05:36:08.083Z,0.70
2023-04-03T05:38:39.345Z,0.77
2023-04-03T05:41:08.193Z,0.77
2023-04-03T05:43:38.813Z,0.85
2023-04-03T05:46:09.603Z,0.83
2023-04-03T05:48:38.105Z,0.89
2023-04-03T05:51:08.238Z,0.98
2023-04-03T05:53:38.842Z,1.04
2023-04-03T05:56:07.476Z,0.97
2023-04-03T05:58:35.654Z,1.02
2023-04-03T06:01:03.842Z,1.02
2023-04-03T06:03:32.152Z,1.01
2023-04-03T06:06:00.483Z,1.12
2023-04-03T06:08:30.212Z,1.16
2023-04-03T06:10:58.669Z,1.17
2023-04-03T06:13:26.646Z,1.18
2023-04-03T06:15:55.229Z,1.19
2023-04-03T06:18:23.660Z,1.17
2023-04-03T06:20:52.649Z,1.24
2023-04-03T06:23:21.048Z,1.38
2023-04-03T06:25:50.821Z,1.35
2023-04-03T06:28:20.481Z,1.30
2023-04-03T06:30:48.362Z,1.29
2023-04-03T06:33:16.468Z,1.36
2023-04-03T06:35:44.491Z,1.37
2023-04-03T06:38:13.073Z,1.40
2023-04-03T06:40:41.775Z,1.50
2023-04-03T06:43:11.480Z,1.45
2023-04-03T06:45:49.686Z,1.58
2023-04-03T06:48:18.676Z,1.71
2023-04-03T06:50:46.989Z,1.70
2023-04-03T06:53:15.332Z,1.70
2023-04-03T06:55:44.047Z,1.76
2023-04-03T06:58:14.012Z,1.97
2023-04-03T07:00:42.405Z,1.97
2023-04-03T07:03:10.529Z,2.03
2023-04-03T07:05:38.976Z,2.13
2023-04-03T07:08:08.087Z,2.06
2023-04-03T07:10:36.428Z,1.90
2023-04-03T07:13:07.185Z,1.96
2023-04-03T07:15:38.390Z,2.05
2023-04-03T07:18:12.685Z,2.22
2023-04-03T07:20:41.725Z,2.44
2023-04-03T07:23:09.916Z,2.47
2023-04-03T07:25:38.025Z,2.34
2023-04-03T07:28:06.717Z,2.54
2023-04-03T07:30:35.313Z,2.49
2023-04-03T07:33:08.025Z,2.40
2023-04-03T07:35:37.226Z,2.53
2023-04-03T07:38:05.851Z,2.54
2023-04-03T07:40:33.867Z,2.57
2023-04-03T07:43:02.716Z,2.58
2023-04-03T07:45:31.337Z,2.94
2023-04-03T07:47:59.583Z,2.80
2023-04-03T07:50:29.101Z,2.81
2023-04-03T07:52:58.855Z,2.75
2023-04-03T07:55:26.982Z,3.00
2023-04-03T07:57:55.071Z,2.81
2023-04-03T08:00:24.433Z,2.99
2023-04-03T08:02:53.142Z,3.04
2023-04-03T08:05:21.766Z,3.36
2023-04-03T08:07:52.272Z,3.04
2023-04-03T08:10:20.188Z,3.01
2023-04-03T08:12:48.649Z,3.19
2023-04-03T08:15:17.527Z,3.34
2023-04-03T08:17:46.938Z,3.41
2023-04-03T08:20:15.431Z,3.48
2023-04-03T08:22:43.870Z,3.52
2023-04-03T08:25:13.742Z,3.47
2023-04-03T08:27:41.734Z,3.05
2023-04-03T08:30:10.378Z,3.18
2023-04-03T08:32:38.750Z,3.51
2023-04-03T08:35:07.820Z,3.65
2023-04-03T08:37:37.592Z,3.72
2023-04-03T08:40:06.434Z,4.05
2023-04-03T08:42:42.994Z,3.84
2023-04-03T08:45:12.983Z,3.48
2023-04-03T08:47:43.512Z,3.36
2023-04-03T08:50:14.969Z,3.27
2023-04-03T08:52:44.426Z,3.36
2023-04-03T08:55:19.386Z,3.57
2023-04-03T08:57:50.571Z,3.71
2023-04-03T09:00:22.092Z,4.24
2023-04-03T09:02:52.364Z,4.20
2023-04-03T09:05:34.364Z,4.32
2023-04-03T09:08:03.656Z,3.97
2023-04-03T09:10:34.629Z,4.01
2023-04-03T09:13:08.239Z,4.34
2023-04-03T09:15:39.540Z,4.24
2023-04-03T09:18:10.550Z,3.90
2023-04-03T09:20:46.614Z,3.91
2023-04-03T09:23:27.366Z,3.52
2023-04-03T09:26:00.378Z,3.41
2023-04-03T09:28:33.126Z,3.39
2023-04-03T09:31:15.898Z,3.07
2023-04-03T09:33:44.195Z,3.39
2023-04-03T09:36:12.246Z,3.49
2023-04-03T09:38:40.696Z,3.67
2023-04-03T09:41:10.478Z,3.48
2023-04-03T09:43:40.922Z,3.50
2023-04-03T09:46:21.064Z,3.74
2023-04-03T09:49:05.155Z,3.79
2023-04-03T09:51:36.917Z,3.74
2023-04-03T09:54:27.538Z,3.94
2023-04-03T09:56:56.928Z,3.83
2023-04-03T09:59:26.814Z,3.88
2023-04-03T10:02:02.319Z,3.86
2023-04-03T10:04:39.813Z,3.85
2023-04-03T10:07:28.414Z,3.94
2023-04-03T10:09:58.126Z,3.84
2023-04-03T10:12:26.630Z,4.18
2023-04-03T10:14:59.836Z,4.36
2023-04-03T10:17:35.958Z,4.26
2023-04-03T10:20:08.770Z,3.94
2023-04-03T10:22:43.285Z,3.93
2023-04-03T10:25:17.382Z,4.14
2023-04-03T10:27:51.101Z,4.25
2023-04-03T10:30:46.447Z,4.63
2023-04-03T10:33:28.003Z,4.59
2023-04-03T10:36:02.022Z,4.67
2023-04-03T10:38:37.324Z,4.87
2023-04-03T10:41:09.629Z,4.92
2023-04-03T10:43:44.602Z,4.33
2023-04-03T10:46:14.309Z,4.62
2023-04-03T10:48:49.195Z,4.52
2023-04-03T10:51:23.633Z,4.70
2023-04-03T10:53:55.244Z,4.57
2023-04-03T10:56:28.338Z,4.40
2023-04-03T10:59:00.130Z,4.45
2023-04-03T11:01:31.148Z,4.68
2023-04-03T11:04:02.429Z,4.85
2023-04-03T11:06:37.930Z,5.46
2023-04-03T11:09:10.625Z,5.16
2023-04-03T11:11:41.662Z,5.03
2023-04-03T11:14:17.415Z,4.89
2023-04-03T11:16:54.145Z,4.81
2023-04-03T11:19:30.424Z,4.83
2023-04-03T11:22:04.777Z,4.83
2023-04-03T11:24:35.643Z,5.27
2023-04-03T11:27:06.956Z,5.66
2023-04-03T11:29:38.018Z,5.71
2023-04-03T11:32:23.518Z,5.30
2023-04-03T11:34:55.180Z,5.10
2023-04-03T11:37:27.421Z,5.00
2023-04-03T11:39:58.548Z,5.08
2023-04-03T11:42:35.538Z,5.28
2023-04-03T11:45:33.879Z,4.76
2023-04-03T11:48:16.776Z,4.53
2023-04-03T11:50:53.350Z,4.36
2023-04-03T11:53:41.999Z,4.49
2023-04-03T11:56:28.636Z,5.18
2023-04-03T11:59:15.385Z,5.59
2023-04-03T12:01:47.669Z,6.34
2023-04-03T12:04:17.172Z,6.30
2023-04-03T12:07:01.469Z,6.13
2023-04-03T12:09:36.386Z,5.52
2023-04-03T12:12:24.952Z,5.05
2023-04-03T12:14:53.809Z,4.77
2023-04-03T12:17:25.339Z,4.89
2023-04-03T12:19:53.276Z,5.19
2023-04-03T12:22:23.363Z,5.53
2023-04-03T12:24:52.943Z,5.35
2023-04-03T12:27:30.476Z,5.77
2023-04-03T12:30:02.448Z,5.56
2023-04-03T12:33:05.801Z,5.23
2023-04-03T12:35:46.445Z,5.36
2023-04-03T12:38:25.529Z,5.22
2023-04-03T12:40:57.671Z,5.10
2023-04-03T12:43:42.633Z,5.63
2023-04-03T12:46:17.747Z,5.76
2023-04-03T12:48:50.961Z,5.73
2023-04-03T12:51:21.940Z,5.23
2023-04-03T12:53:52.622Z,5.24
2023-04-03T12:56:21.946Z,5.40
2023-04-03T12:58:50.795Z,5.38
2023-04-03T13:01:20.711Z,5.31
2023-04-03T13:03:51.078Z,4.94
2023-04-03T13:06:21.468Z,5.15
2023-04-03T13:08:54.985Z,5.42
2023-04-03T13:11:24.371Z,5.81
2023-04-03T13:14:03.330Z,5.57
2023-04-03T13:16:31.409Z,5.38
2023-04-03T13:18:59.990Z,5.05
2023-04-03T13:21:31.225Z,5.03
2023-04-03T13:24:13.915Z,5.03
2023-04-03T13:26:44.610Z,5.05
2023-04-03T13:29:29.987Z,5.22
2023-04-03T13:32:00.208Z,5.41
2023-04-03T13:34:29.966Z,5.73
2023-04-03T13:36:59.556Z,5.74
2023-04-03T13:39:31.246Z,5.68
2023-04-03T13:42:00.614Z,5.47
2023-04-03T13:44:33.841Z,5.52
2023-04-03T13:47:03.739Z,5.61
2023-04-03T13:49:34.015Z,5.48
2023-04-03T13:52:07.818Z,5.60
2023-04-03T13:54:39.477Z,5.56
2023-04-03T13:57:14.452Z,5.34
2023-04-03T13:59:42.799Z,5.65
2023-04-03T14:02:19.920Z,5.81
2023-04-03T14:04:50.561Z,5.66
2023-04-03T14:07:21.298Z,5.69
2023-04-03T14:09:54.290Z,5.71
2023-04-03T14:12:31.458Z,5.88
2023-04-03T14:15:02.988Z,6.07
2023-04-03T14:17:34.798Z,6.02
2023-04-03T14:20:03.094Z,5.80
2023-04-03T14:22:33.282Z,5.84
2023-04-03T14:25:03.493Z,5.75
2023-04-03T14:27:33.109Z,5.76
2023-04-03T14:30:02.122Z,5.54
2023-04-03T14:32:30.146Z,5.85
2023-04-03T14:35:00.037Z,6.16
2023-04-03T14:37:30.588Z,5.95
2023-04-03T14:40:00.139Z,5.63
2023-04-03T14:42:31.238Z,6.19
2023-04-03T14:45:00.124Z,6.37
2023-04-03T14:47:32.263Z,6.44
2023-04-03T14:50:01.662Z,6.50
2023-04-03T14:52:31.680Z,6.20
2023-04-03T14:54:59.568Z,6.23
2023-04-03T14:57:28.840Z,6.20
2023-04-03T14:59:58.307Z,6.29
2023-04-03T15:02:31.324Z,6.22
2023-04-03T15:05:00.061Z,5.88
2023-04-03T15:07:29.817Z,5.68
2023-04-03T15:10:00.208Z,5.76
2023-04-03T15:12:29.427Z,5.63
2023-04-03T15:15:02.779Z,5.73
2023-04-03T15:17:32.086Z,5.56
2023-04-03T15:20:00.722Z,5.41
2023-04-03T15:22:29.007Z,5.50
2023-04-03T15:24:56.771Z,5.30
2023-04-03T15:27:24.573Z,5.16
2023-04-03T15:29:52.596Z,5.23
2023-04-03T15:32:21.888Z,5.48
2023-04-03T15:34:50.105Z,5.77
2023-04-03T15:37:18.585Z,5.73
2023-04-03T15:39:46.792Z,5.56
2023-04-03T15:42:14.815Z,5.68
2023-04-03T15:44:43.097Z,5.46
2023-04-03T15:47:11.517Z,5.04
2023-04-03T15:49:41.596Z,4.97
2023-04-03T15:52:09.870Z,4.91
2023-04-03T15:54:37.806Z,4.77
2023-04-03T15:57:05.874Z,4.70
2023-04-03T15:59:33.939Z,4.72
2023-04-03T16:02:02.819Z,4.77
2023-04-03T16:04:31.064Z,4.80
2023-04-03T16:07:03.204Z,4.90
2023-04-03T16:09:31.249Z,5.03
2023-04-03T16:11:59.144Z,4.96
2023-04-03T16:14:29.342Z,4.87
2023-04-03T16:16:57.638Z,4.94
2023-04-03T16:19:26.426Z,4.72
2023-04-03T16:21:55.839Z,4.75
2023-04-03T16:24:25.915Z,4.80
2023-04-03T16:26:54.631Z,4.77
2023-04-03T16:29:23.035Z,4.75
2023-04-03T16:31:51.439Z,4.85
2023-04-03T16:34:19.376Z,4.82
2023-04-03T16:36:47.706Z,4.70
2023-04-03T16:39:16.415Z,4.74
2023-04-03T16:41:46.404Z,5.25
2023-04-03T16:44:15.127Z,6.11
2023-04-03T16:46:43.180Z,6.42
2023-04-03T16:49:11.580Z,7.15
2023-04-03T16:51:39.906Z,6.64
2023-04-03T16:54:08.367Z,6.01
2023-04-03T16:56:36.396Z,6.04
2023-04-03T16:59:06.436Z,5.61
2023-04-03T17:01:34.347Z,5.67
2023-04-03T17:04:02.656Z,5.46
2023-04-03T17:06:31.804Z,4.77
2023-04-03T17:08:59.969Z,4.45
2023-04-03T17:11:28.105Z,4.19
2023-04-03T17:13:56.144Z,3.88
2023-04-03T17:16:26.755Z,3.83
2023-04-03T17:18:55.418Z,3.76
2023-04-03T17:21:23.770Z,3.64
2023-04-03T17:23:53.725Z,3.47
2023-04-03T17:26:22.177Z,3.52
2023-04-03T17:28:50.646Z,3.46
2023-04-03T17:31:18.627Z,3.36
2023-04-03T17:33:48.617Z,3.27
2023-04-03T17:36:16.652Z,3.23
2023-04-03T17:38:44.591Z,3.19
2023-04-03T17:41:12.881Z,3.18
2023-04-03T17:43:41.145Z,3.11
2023-04-03T17:46:10.121Z,3.06
2023-04-03T17:48:39.389Z,3.02
2023-04-03T17:51:10.246Z,2.96
2023-04-03T17:53:38.043Z,2.94
2023-04-03T17:56:09.022Z,2.94
2023-04-03T17:58:37.651Z,2.90
2023-04-03T18:01:13.104Z,2.81
2023-04-03T18:03:42.131Z,2.80
2023-04-03T18:06:12.855Z,2.70
2023-04-03T18:08:43.277Z,2.64
2023-04-03T18:11:11.748Z,2.54
2023-04-03T18:13:40.017Z,2.48
2023-04-03T18:16:08.624Z,2.42
2023-04-03T18:18:37.263Z,2.37
2023-04-03T18:21:06.090Z,2.35
2023-04-03T18:23:37.020Z,2.29
2023-04-03T18:26:06.086Z,2.26
2023-04-03T18:28:34.057Z,2.20
2023-04-03T18:31:02.246Z,2.18
2023-04-03T18:33:30.249Z,2.16
2023-04-03T18:35:58.187Z,2.06
2023-04-03T18:38:26.345Z,2.03
2023-04-03T18:40:56.906Z,2.02
2023-04-03T18:43:27.227Z,1.96
2023-04-03T18:45:55.259Z,1.95
2023-04-03T18:48:23.150Z,1.89
2023-04-03T18:50:51.644Z,1.86
2023-04-03T18:53:20.448Z,1.83
2023-04-03T18:55:48.839Z,1.81
2023-04-03T18:58:18.404Z,1.73
2023-04-03T19:00:46.962Z,1.72
2023-04-03T19:03:15.133Z,1.71
2023-04-03T19:05:43.530Z,1.57
2023-04-03T19:08:12.177Z,1.53
2023-04-03T19:10:40.489Z,1.48
2023-04-03T19:13:08.720Z,1.45
2023-04-03T19:15:38.856Z,1.39
2023-04-03T19:18:06.949Z,1.42
2023-04-03T19:20:34.972Z,1.35
2023-04-03T19:23:03.177Z,1.31
2023-04-03T19:25:31.433Z,1.28
2023-04-03T19:27:59.876Z,1.20
2023-04-03T19:30:27.810Z,1.16
2023-04-03T19:32:58.406Z,1.15
2023-04-03T19:35:26.569Z,1.08
2023-04-03T19:37:54.514Z,1.08
2023-04-03T19:40:22.761Z,1.05
2023-04-03T19:42:50.966Z,1.02
2023-04-03T19:45:20.471Z,1.08
2023-04-03T19:47:49.598Z,0.96
2023-04-03T19:50:19.464Z,0.92
2023-04-03T19:52:48.820Z,0.87
2023-04-03T19:55:17.086Z,0.83
2023-04-03T19:57:44.971Z,0.79
2023-04-03T20:00:14.001Z,0.74
2023-04-03T20:02:41.890Z,0.66
2023-04-03T20:05:11.805Z,0.62
2023-04-03T20:07:41.146Z,0.57
2023-04-03T20:10:10.483Z,0.58
2023-04-03T20:12:39.580Z,0.55
2023-04-03T20:15:09.171Z,0.48
2023-04-03T20:17:37.529Z,0.50
2023-04-03T20:20:06.227Z,0.48
2023-04-03T20:22:35.062Z,0.38
2023-04-03T20:25:06.724Z,0.45
2023-04-03T20:27:35.150Z,0.41
2023-04-03T20:30:04.029Z,0.30
2023-04-03T20:32:32.756Z,0.28
2023-04-03T20:35:03.974Z,0.27
2023-04-03T20:37:32.635Z,0.21
2023-04-03T20:40:01.028Z,0.14
2023-04-03T20:42:30.285Z,0.11
2023-04-03T20:44:59.915Z,0.08
2023-04-03T20:47:28.082Z,0.07
2023-04-03T20:49:58.725Z,0.07
2023-04-03T20:52:27.098Z,0.06
2023-04-03T20:54:55.010Z,0.03
2023-04-03T20:57:23.057Z,0.03
2023-04-03T20:59:54.332Z,-0.06
2023-04-03T21:02:22.262Z,-0.08
2023-04-03T21:04:52.220Z,-0.11
2023-04-03T21:07:40.174Z,-0.17
2023-04-03T21:10:28.456Z,-0.24
2023-04-03T21:13:14.848Z,-0.29
2023-04-03T21:15:48.994Z,-0.35
2023-04-03T21:18:33.534Z,-0.44
2023-04-03T21:21:02.830Z,-0.53
2023-04-03T21:23:31.207Z,-0.51
2023-04-03T21:25:59.344Z,-0.63
2023-04-03T21:28:27.606Z,-0.66
2023-04-03T21:30:55.482Z,-0.64
2023-04-03T21:33:23.350Z,-0.72
2023-04-03T21:35:57.858Z,-0.71
2023-04-03T21:38:27.420Z,-0.74
2023-04-03T21:40:57.829Z,-0.78
2023-04-03T21:43:26.268Z,-0.78
2023-04-03T21:45:54.433Z,-0.80
2023-04-03T21:48:22.412Z,-0.86
2023-04-03T21:50:52.631Z,-0.90
2023-04-03T21:53:22.648Z,-0.97
2023-04-03T21:55:57.534Z,-0.97
2023-04-03T21:58:29.501Z,-0.98
2023-04-03T22:00:57.672Z,-1.00
2023-04-03T22:03:25.759Z,-1.02
2023-04-03T22:05:53.827Z,-1.02
2023-04-03T22:08:23.046Z,-1.06
2023-04-03T22:10:51.505Z,-1.07
2023-04-03T22:13:19.482Z,-1.11
2023-04-03T22:15:48.396Z,-0.98
2023-04-03T22:18:16.431Z,-1.08
2023-04-03T22:20:44.846Z,-1.00
2023-04-03T22:23:13.012Z,-0.93
2023-04-03T22:25:42.903Z,-0.94
2023-04-03T22:28:12.373Z,-1.00
2023-04-03T22:30:42.175Z,-1.07
2023-04-03T22:33:10.348Z,-1.08
2023-04-03T22:35:38.610Z,-1.11
2023-04-03T22:38:06.959Z,-1.04
2023-04-03T22:40:35.022Z,-1.19
2023-04-03T22:43:04.789Z,-1.23
2023-04-03T22:45:32.959Z,-1.25
2023-04-03T22:48:01.588Z,-1.27
2023-04-03T22:50:29.814Z,-1.30
2023-04-03T22:52:57.779Z,-1.23
2023-04-03T22:55:26.854Z,-1.21
2023-04-03T22:57:55.138Z,-1.16
2023-04-03T23:00:24.895Z,-1.04
2023-04-03T23:02:53.145Z,-0.85
2023-04-03T23:05:21.526Z,-0.65
2023-04-03T23:07:49.484Z,-0.51
2023-04-03T23:10:17.994Z,-0.35
2023-04-03T23:12:46.090Z,-0.22
2023-04-03T23:15:15.439Z,-0.11
2023-04-03T23:17:44.887Z,0.06
2023-04-03T23:20:13.072Z,0.01
2023-04-03T23:22:41.359Z,0.09
2023-04-03T23:25:09.822Z,0.13
2023-04-03T23:27:38.105Z,0.28
2023-04-03T23:30:06.668Z,0.31
2023-04-03T23:32:34.521Z,0.29
2023-04-03T23:35:05.665Z,0.31
2023-04-03T23:37:33.602Z,0.34
2023-04-03T23:40:02.422Z,0.35
2023-04-03T23:42:30.244Z,0.37
2023-04-03T23:44:58.463Z,0.31
2023-04-03T23:47:26.633Z,0.27
2023-04-03T23:49:54.448Z,0.28
2023-04-03T23:52:24.192Z,0.22
2023-04-03T23:54:52.376Z,0.23
2023-04-03T23:57:20.444Z,0.28
2023-04-03T23:59:48.388Z,0.31
